Latest Coastal Weather Observations for Strahan

IDT60701

Issued at 7:32 pm EST Wednesday 6 May 2026 (issued every 10 minutes, with the page automatically refreshed every 10 minutes)

About coastal observations | Map of coastal stations | Coastal observations for TAS | Marine services | Other Formats
Station Details ID: 097072 Name: STRAHAN AERODROME Lat: -42.16 Lon: 145.29 Height: 21.0 m
Data from the previous 72 hours. | See also: Recent months at Strahan
Date/Time
EST
Wind Sea
Height
m
Swell Vis
km
Cloud Weather Temp
°C
Press
MSL
hPa
Rain since
9am
mm
Dir  Spd
kts
Gust
kts
Height
m
Period
s
Dir
06/07:30pm SW 9 11 - - - - 10 Partly cloudy - 7.7 1009.8 15.2
06/07:00pm WSW 19 25 - - - - 10 Partly cloudy - 8.2 1009.8 15.0
06/06:56pm WSW 15 25 - - - - 10 Partly cloudy - 8.3 1009.8 14.6
06/06:30pm WSW 1 4 - - - - 10 Partly cloudy - 8.1 1009.7 14.2
06/06:00pm WSW 6 8 - - - - 10 Cloudy Rain 8.3 1009.7 14.2
06/05:30pm SW 5 7 - - - - 10 Mostly clear - 8.9 1009.7 13.4
06/05:00pm SW 6 8 - - - - 10 Mostly clear - 9.1 1009.1 12.8
06/04:30pm WSW 8 12 - - - - 6 Mostly clear - 9.1 1009.5 12.6
06/04:01pm SSE 5 7 - - - - 10 Partly cloudy - 9.0 1009.4 11.8
06/04:00pm SSE 5 7 - - - - 10 Partly cloudy - 9.0 1009.4 11.8
06/03:57pm S 5 7 - - - - 9 Mostly clear - 9.0 1009.4 11.6
06/03:43pm SSW 6 7 - - - - 5 Partly cloudy - 9.1 1009.9 11.0
06/03:40pm SSW 6 7 - - - - 7 Partly cloudy - 9.2 1009.9 10.8
06/03:39pm SSW 6 8 - - - - 8 Partly cloudy - 9.2 1009.9 10.4
06/03:30pm SW 8 11 - - - - 8 Partly cloudy - 9.3 1009.8 10.0
06/03:04pm SW 12 19 - - - - 8 Partly cloudy - 9.5 1009.3 8.4
06/03:00pm SW 14 19 - - - - 7 Cloudy Rain 9.5 1009.2 8.2
06/02:38pm WSW 15 20 - - - - 5 Partly cloudy - 10.0 1008.8 7.2
06/02:30pm WSW 14 21 - - - - 6 Partly cloudy - 9.8 1008.8 6.4
06/02:19pm WSW 14 20 - - - - 8 Partly cloudy - 10.0 1008.6 6.0
06/02:16pm WSW 15 25 - - - - 8 Partly cloudy - 9.9 1008.6 6.0
06/02:07pm SW 11 25 - - - - 5 Partly cloudy - 9.9 1008.6 5.6
06/02:00pm WSW 7 11 - - - - 5 Mostly clear - 10.7 1008.6 5.2
06/01:46pm SW 7 10 - - - - 5 Partly cloudy - 10.7 1008.5 4.0
06/01:30pm SW 11 14 - - - - 10 Partly cloudy - 10.8 1008.8 3.8
06/01:00pm SW 9 11 - - - - 7 Partly cloudy - 11.4 1009.5 3.8
06/12:59pm SW 9 11 - - - - 7 Partly cloudy - 11.4 1009.5 3.8
06/12:30pm WSW 12 17 - - - - 4 Partly cloudy - 12.1 1009.9 3.2
06/12:28pm W 12 17 - - - - 5 Mostly clear - 12.1 1009.9 3.2
06/12:19pm WSW 12 16 - - - - 7 Mostly clear - 12.3 1010.0 2.4
06/12:15pm SW 12 16 - - - - 9 Partly cloudy - 12.4 1010.1 2.2
06/12:02pm WNW 17 24 - - - - 5 Mostly clear - 13.2 1010.1 1.2
06/12:00pm WNW 18 27 - - - - 9 Cloudy Rain 13.7 1010.2 0.8
06/11:30am NW 18 26 - - - - 10 Partly cloudy - 16.2 1010.7 0.4
06/11:00am NNW 16 23 - - - - 10 Partly cloudy - 15.8 1011.1 0.4
06/10:30am NNW 19 25 - - - - 10 Partly cloudy - 15.2 1011.6 0.4
06/10:00am NNW 18 25 - - - - 10 Partly cloudy - 14.2 1011.8 0.4
06/09:30am NNW 17 22 - - - - 10 Partly cloudy - 14.0 1012.1 0.4
06/09:18am NNW 15 25 - - - - 10 Partly cloudy - 13.8 1012.2 0.4
06/09:00am NW 15 21 - - - - 10 Cloudy - 13.8 1012.4 9.4
06/08:30am NNW 16 21 - - - - 10 Mostly clear - 13.5 1012.7 9.4
06/08:00am NNW 17 22 - - - - 7 Partly cloudy - 12.9 1012.7 9.4
06/07:30am NNW 14 20 - - - - 9 Mostly clear - 12.8 1012.9 9.4
06/07:00am NW 16 23 - - - - 10 Partly cloudy - 13.4 1012.9 9.4
06/06:30am NNW 16 23 - - - - 10 Mostly clear - 13.4 1013.3 9.2
06/06:00am NW 20 29 - - - - 10 Cloudy Rain 13.1 1013.5 9.2
06/05:51am NW 19 29 - - - - 10 Mostly clear - 13.1 1013.4 9.2
06/05:30am NW 18 26 - - - - 10 Mostly clear - 12.8 1013.5 9.2
06/05:13am NW 18 35 - - - - 10 Mostly clear - 13.4 1013.5 9.0
06/05:01am NW 19 27 - - - - 10 Mostly clear - 13.2 1013.6 9.0
06/05:00am NW 19 27 - - - - 10 Mostly clear - 13.1 1013.6 9.0
06/04:35am NW 17 29 - - - - 4 Mostly clear - 13.0 1013.7 8.4
06/04:32am NNW 15 26 - - - - 10 Partly cloudy - 13.4 1013.8 7.8
06/04:30am NNW 14 21 - - - - 10 Partly cloudy - 13.6 1013.7 7.6
06/04:00am NNW 18 26 - - - - 10 Mostly clear - 13.2 1013.7 7.6
06/03:30am NNW 16 23 - - - - 8 Partly cloudy - 13.5 1014.0 7.6
06/03:00am NW 16 23 - - - - 10 Cloudy Rain 13.5 1014.3 7.6
06/02:39am NW 17 25 - - - - 10 Partly cloudy - 13.4 1014.5 7.6
06/02:30am NW 19 25 - - - - 10 Partly cloudy - 13.4 1014.6 7.6
06/02:27am NW 19 26 - - - - 10 Partly cloudy - 13.3 1014.6 7.6
06/02:12am NW 18 31 - - - - 10 Partly cloudy - 13.3 1014.7 7.4
06/02:00am NW 17 24 - - - - 4 Partly cloudy - 13.4 1014.9 7.4
06/01:51am NW 18 25 - - - - 3 Mostly clear - 13.3 1014.9 7.0
06/01:44am NW 18 27 - - - - 5 Partly cloudy - 13.3 1015.1 6.6
06/01:30am NNW 17 30 - - - - 9 Mostly clear - 13.4 1015.1 6.4
06/01:23am NNW 15 27 - - - - 10 Partly cloudy - 13.6 1015.2 6.4
06/01:00am NNW 16 24 - - - - 10 Partly cloudy - 13.4 1015.4 6.2
06/12:30am NNW 15 22 - - - - 10 Mostly clear - 13.3 1015.6 6.2
06/12:00am NW 14 20 - - - - 10 Cloudy - 13.5 1015.7 6.2
 
Date/Time
EST
Wind Sea
Height
m
Swell Vis
km
Cloud Weather Temp
°C
Press
MSL
hPa
Rain since
9am
mm
Dir  Spd
kts
Gust
kts
Height
m
Period
s
Dir
05/11:30pm NW 14 19 - - - - 10 Partly cloudy - 13.4 1015.9 6.2
05/11:28pm NW 14 19 - - - - 10 Partly cloudy - 13.3 1015.9 6.2
05/11:00pm NW 13 17 - - - - 10 Partly cloudy - 13.2 1016.4 6.2
05/10:53pm NNW 12 16 - - - - 10 Mostly clear - 13.1 1016.5 6.2
05/10:30pm NNW 10 19 - - - - 5 Partly cloudy - 13.0 1016.6 6.0
05/10:20pm N 12 18 - - - - 10 Partly cloudy - 12.8 1016.6 5.8
05/10:02pm N 12 20 - - - - 5 Partly cloudy - 12.7 1016.8 5.4
05/10:00pm N 11 17 - - - - 8 Partly cloudy - 12.6 1016.8 5.4
05/09:58pm N 10 16 - - - - 10 Mostly clear - 12.4 1016.8 5.4
05/09:55pm N 10 13 - - - - 10 Mostly clear - 12.3 1016.8 5.4
05/09:48pm N 11 16 - - - - 10 Mostly clear - 12.1 1016.8 5.4
05/09:30pm N 12 19 - - - - 3 Partly cloudy - 12.5 1016.9 5.4
05/09:04pm NNW 12 17 - - - - 5 Partly cloudy - 12.6 1016.9 4.6
05/09:00pm NNW 12 17 - - - - 8 Cloudy Showers 12.6 1017.0 4.4
05/08:52pm NNW 13 18 - - - - 10 Partly cloudy - 12.6 1017.0 4.4
05/08:30pm NW 10 21 - - - - 2 Partly cloudy - 12.6 1017.1 4.0
05/08:18pm NNW 8 11 - - - - 3 Partly cloudy - 11.7 1017.2 2.4
05/08:11pm N 8 11 - - - - 5 Mostly clear - 11.7 1017.2 1.2
05/08:00pm N 9 11 - - - - 10 Partly cloudy - 11.7 1017.0 0.8
05/07:30pm N 9 13 - - - - 10 Mostly clear - 11.5 1017.2 0.8
05/07:00pm N 8 11 - - - - 10 Partly cloudy - 11.4 1017.1 0.8
05/06:32pm NNE 6 9 - - - - 10 Partly cloudy - 11.3 1017.0 0.6
05/06:30pm NNE 6 9 - - - - 9 Partly cloudy - 11.3 1017.0 0.6
05/06:12pm N 7 10 - - - - 5 Partly cloudy - 11.4 1017.0 0.6
05/06:10pm N 7 10 - - - - 7 Partly cloudy - 11.4 1017.0 0.6
05/06:00pm N 7 11 - - - - 5 Cloudy Showers 11.4 1017.0 0.6
05/05:53pm N 7 11 - - - - 5 Partly cloudy - 11.5 1016.9 0.4
05/05:30pm NNE 6 9 - - - - 10 Partly cloudy - 11.5 1016.6 0.4
05/05:00pm N 6 9 - - - - 10 Partly cloudy - 11.7 1016.6 0.4
05/04:30pm N 7 10 - - - - 10 Cloudy - 11.8 1016.5 0.4
05/04:00pm N 8 10 - - - - 10 Mostly clear - 11.7 1016.5 0.4
05/03:54pm N 8 11 - - - - 10 Mostly clear - 11.7 1016.5 0.4
05/03:47pm N 9 11 - - - - 10 Mostly clear - 11.8 1016.4 0.4
05/03:36pm NNW 8 11 - - - - 5 Partly cloudy - 11.8 1016.4 0.4
05/03:30pm NW 8 11 - - - - 5 Partly cloudy - 12.0 1016.5 0.4
05/03:15pm NW 10 13 - - - - 5 Mostly clear - 12.0 1016.5 0.0
05/03:00pm NW 9 14 - - - - 10 Cloudy - 12.6 1016.3 0.0
05/02:30pm NNW 7 10 - - - - 10 Mostly clear - 13.4 1015.9 0.0
05/02:00pm NW 8 11 - - - - 10 Partly cloudy - 12.9 1015.8 0.0
05/01:30pm W 9 12 - - - - 10 Cloudy - 12.7 1015.8 0.0
05/01:00pm WNW 9 15 - - - - 10 Mostly clear - 12.5 1015.9 0.0
05/12:30pm W 10 13 - - - - 10 Partly cloudy - 12.9 1016.0 0.0
05/12:00pm W 11 15 - - - - 10 Cloudy Recent precip. 12.6 1015.8 0.0
05/11:30am WSW 7 13 - - - - 10 Partly cloudy - 12.6 1015.9 0.0
05/11:25am WSW 8 11 - - - - 10 Mostly clear - 12.3 1015.8 0.0
05/11:09am W 13 20 - - - - 5 Partly cloudy - 11.6 1015.8 0.0
05/11:00am W 12 20 - - - - 10 Partly cloudy - 12.3 1015.6 0.0
05/10:30am WSW 10 14 - - - - 10 Partly cloudy - 12.4 1014.9 0.0
05/10:15am WSW 9 12 - - - - 10 Cloudy - 12.6 1014.5 0.0
05/10:01am WSW 8 11 - - - - 10 Mostly clear - 12.4 1014.4 0.0
05/10:00am WSW 8 11 - - - - 10 Mostly clear - 12.4 1014.3 0.0
05/09:34am WSW 9 11 - - - - 10 Mostly clear - 12.5 1014.2 0.0
05/09:30am WSW 9 11 - - - - 10 Mostly clear - 12.3 1014.2 0.0
05/09:12am WSW 5 14 - - - - 10 Mostly clear - 12.2 1014.1 0.0
05/09:00am SW 5 7 - - - - 4 Cloudy Showers 12.0 1013.9 3.2
05/08:53am SSW 6 7 - - - - 5 Partly cloudy - 12.0 1013.9 3.0
05/08:45am SW 6 11 - - - - 10 Partly cloudy - 12.1 1013.9 2.8
05/08:30am WSW 6 10 - - - - 5 Mostly clear - 12.0 1013.9 2.8
05/08:28am WSW 6 10 - - - - 5 Mostly clear - 12.0 1013.9 2.8
05/08:27am WSW 6 10 - - - - 5 Mostly clear - 11.9 1013.9 2.8
05/08:00am WSW 5 7 - - - - 10 Mostly clear - 11.5 1013.2 2.4
05/07:30am WSW 9 14 - - - - 10 Partly cloudy - 11.7 1012.7 2.4
05/07:16am WSW 10 13 - - - - 10 Partly cloudy - 11.6 1012.4 2.4
05/07:00am W 12 16 - - - - 10 Mostly clear - 11.9 1012.1 2.4
05/06:53am WSW 14 18 - - - - 10 Partly cloudy - 11.8 1012.0 2.4
05/06:40am WSW 9 13 - - - - 5 Partly cloudy - 12.1 1011.8 2.4
05/06:38am WSW 8 13 - - - - 5 Partly cloudy - 12.1 1011.8 2.4
05/06:30am WSW 7 9 - - - - 10 Mostly clear - 11.8 1011.5 2.0
05/06:00am WSW 9 11 - - - - 10 Cloudy Recent precip. 12.2 1011.1 2.0
05/05:30am WSW 8 10 - - - - 10 Mostly clear - 12.1 1010.6 2.0
05/05:20am WSW 10 14 - - - - 10 Mostly clear - 11.9 1010.4 2.0
05/05:06am WSW 7 12 - - - - 10 Partly cloudy - 12.2 1010.2 2.0
05/05:00am SW 8 10 - - - - 10 Partly cloudy - 12.1 1010.0 2.0
05/04:30am WSW 6 7 - - - - 10 Mostly clear - 11.7 1009.6 2.0
05/04:23am WSW 4 6 - - - - 10 Partly cloudy - 11.3 1009.5 2.0
05/04:12am NW 2 4 - - - - 10 Partly cloudy - 10.7 1009.3 2.0
05/04:04am CALM 0 3 - - - - 10 Partly cloudy - 10.0 1009.1 2.0
05/04:00am CALM 0 0 - - - - 10 Partly cloudy - 10.2 1009.1 2.0
05/03:52am CALM 0 0 - - - - 10 Partly cloudy - 11.4 1008.9 2.0
05/03:48am CALM 0 0 - - - - 10 Partly cloudy - 11.4 1008.9 2.0
05/03:31am SW 1 4 - - - - 10 Partly cloudy - 11.5 1008.8 2.0
05/03:30am SW 1 4 - - - - 10 Partly cloudy - 11.6 1008.8 2.0
05/03:20am CALM 0 0 - - - - 5 Partly cloudy - 11.3 1008.8 2.0
05/03:03am CALM 0 0 - - - - 10 Partly cloudy - 11.6 1008.5 1.6
05/03:00am CALM 0 0 - - - - 10 Cloudy Showers 11.5 1008.5 1.6
05/02:45am N 2 4 - - - - 5 Partly cloudy - 11.3 1008.5 1.2
05/02:30am NE 3 4 - - - - 10 Mostly clear - 11.3 1008.3 0.0
05/02:00am CALM 0 0 - - - - 10 Partly cloudy - 11.4 1008.3 0.0
05/01:30am CALM 0 0 - - - - 10 Partly cloudy - 11.1 1008.2 0.0
05/01:00am CALM 0 0 - - - - 10 Partly cloudy - 10.7 1007.9 0.0
05/12:30am SSW 2 4 - - - - 10 Partly cloudy - 11.5 1007.6 0.0
05/12:00am SW 4 5 - - - - 10 Partly cloudy - 11.0 1007.5 0.0
 
Date/Time
EST
Wind Sea
Height
m
Swell Vis
km
Cloud Weather Temp
°C
Press
MSL
hPa
Rain since
9am
mm
Dir  Spd
kts
Gust
kts
Height
m
Period
s
Dir
04/11:30pm S 3 5 - - - - 10 Partly cloudy - 11.5 1007.5 0.0
04/11:00pm CALM 0 0 - - - - 10 Partly cloudy - 12.0 1007.6 0.0
04/10:30pm CALM 0 0 - - - - 10 Cloudy - 12.0 1007.7 0.0
04/10:00pm CALM 0 3 - - - - 10 Partly cloudy - 12.1 1007.6 0.0
04/09:30pm NNE 3 5 - - - - 10 Mostly clear - 12.5 1007.4 0.0
04/09:00pm CALM 0 0 - - - - 10 Cloudy - 12.6 1007.4 0.0
04/08:30pm ENE 3 4 - - - - 10 Cloudy - 12.7 1007.2 0.0
04/08:00pm NNE 6 8 - - - - 10 Partly cloudy - 13.0 1007.2 0.0
04/07:30pm N 5 6 - - - - 10 Mostly clear - 13.3 1007.3 0.0
04/07:00pm NNE 5 7 - - - - 10 Cloudy - 13.5 1006.9 0.0
04/06:30pm N 5 7 - - - - 10 Partly cloudy - 13.1 1006.8 0.0
04/06:00pm N 7 10 - - - - 10 Cloudy - 14.1 1006.5 0.0
04/05:30pm N 10 14 - - - - 10 Partly cloudy - 14.8 1006.4 0.0
04/05:00pm N 8 12 - - - - 10 Partly cloudy - 15.1 1006.2 0.0
04/04:30pm N 7 11 - - - - 10 Partly cloudy - 15.4 1006.0 0.0
04/04:00pm N 7 9 - - - - 10 Partly cloudy - 15.9 1005.9 0.0
04/03:30pm NNE 9 13 - - - - 10 Partly cloudy - 16.7 1005.9 0.0
04/03:00pm NNE 9 13 - - - - 10 Partly cloudy - 17.7 1006.0 0.0
04/02:30pm N 11 16 - - - - 10 - - 17.9 1006.0 0.0
04/02:00pm NNE 13 18 - - - - 10 Cloudy - 17.7 1006.1 0.0
04/01:30pm NNE 9 15 - - - - 10 Partly cloudy - 16.8 1006.4 0.0
04/01:00pm N 13 18 - - - - 10 Mostly clear - 18.1 1006.8 0.0
04/12:30pm N 11 18 - - - - 10 Mostly clear - 18.3 1007.1 0.0
04/12:00pm N 10 16 - - - - 10 Cloudy - 17.8 1007.4 0.0
04/11:30am NNE 13 21 - - - - 10 Mostly clear - 17.7 1007.8 0.0
04/11:00am N 11 17 - - - - 10 Mostly clear - 17.4 1008.2 0.0
04/10:30am NNE 12 17 - - - - 10 Partly cloudy - 15.8 1008.2 0.0
04/10:00am N 7 14 - - - - 10 - - 15.2 1008.2 0.0
04/09:30am N 6 9 - - - - 10 - - 16.0 1008.4 0.0
04/09:00am NNE 6 10 - - - - 10 Mostly clear - 15.3 1008.4 11.0
04/08:30am NNE 7 10 - - - - 10 Partly cloudy - 14.2 1008.5 11.0
04/08:00am NNE 4 6 - - - - 10 Mostly clear - 12.3 1008.5 11.0
04/07:30am NNE 6 7 - - - - 10 Cloudy - 11.8 1008.3 11.0
04/07:00am NNE 7 9 - - - - 10 Partly cloudy - 11.4 1008.3 11.0
04/06:30am NNE 7 9 - - - - 10 Partly cloudy - 11.1 1008.4 11.0
04/06:00am NNE 7 10 - - - - 10 - - 10.8 1008.4 11.0
04/05:30am N 6 8 - - - - 10 - - 10.6 1008.2 11.0
04/05:00am N 7 9 - - - - 10 - - 11.1 1008.2 11.0
04/04:30am NNE 8 12 - - - - 10 - - 11.7 1008.4 11.0
04/04:00am NNE 7 10 - - - - 10 - - 12.0 1008.4 11.0
04/03:30am NNE 8 10 - - - - 10 Cloudy - 12.6 1008.7 11.0
04/03:00am NNE 8 11 - - - - 10 Cloudy - 12.0 1008.9 11.0
04/02:30am NNE 7 10 - - - - 10 Cloudy - 11.9 1009.0 11.0
04/02:00am NNE 7 9 - - - - 10 Partly cloudy - 11.3 1009.1 11.0
04/01:30am NNE 6 8 - - - - 10 - - 11.0 1009.1 11.0
04/01:00am NNE 7 10 - - - - 10 - - 11.3 1008.8 11.0
04/12:30am NNE 6 8 - - - - 10 - - 11.2 1009.1 11.0
04/12:00am NNE 6 8 - - - - 10 - Rain 11.0 1009.9 11.0
 
Date/Time
EST
Wind Sea
Height
m
Swell Vis
km
Cloud Weather Temp
°C
Press
MSL
hPa
Rain since
9am
mm
Dir  Spd
kts
Gust
kts
Height
m
Period
s
Dir
03/11:30pm NNE 6 8 - - - - 10 - - 11.2 1010.3 10.8
03/11:00pm NNE 6 7 - - - - 10 - - 11.3 1010.4 10.8
03/10:30pm NNE 6 7 - - - - 10 - - 11.5 1010.8 10.8
03/10:00pm NNE 8 10 - - - - 10 - - 11.8 1011.0 10.8
03/09:30pm N 7 9 - - - - 10 - - 11.9 1010.7 10.8
03/09:00pm N 6 8 - - - - 10 - - 12.0 1010.3 10.8
03/08:30pm NNE 4 5 - - - - 10 Mostly clear - 12.3 1010.2 10.8
03/08:00pm NNE 4 6 - - - - 10 - - 12.9 1010.0 10.8

Other formats

Comma delimited format used in spreadsheet applications
http://www.bom.gov.au/fwo/IDT60701/IDT60701.94956.axf

JavaScript Object Notation format (JSON) in row-major order
http://www.bom.gov.au/fwo/IDT60701/IDT60701.94956.json

Data quality

Most of these data are generated automatically and are frequently updated. Quality checks on data are not normally performed. It is possible for incorrect values to appear. Refer to information at About Latest Weather Observations and please check the disclaimer before using these data.